PWSweather.com
Personal Weather Stations
Station Observations
HELOTES
Helotes Park Terrace, Helotes, TX 78023

Helotes Park TerraceHelotes, TX 78023

Lat: 29.57, Lon: -98.68

Elevation: 1060

Station Type: Ambient Weather WS-1090

Latest ConditionsUpdated 11:52:03 AM CDT Wednesday, Sep 2, 2015
Currently Today's Max Today's Min Today's Average
Temperature 84.6°F29.2°C 84.6°F29.2°C 72.2°F22.3°C 75.5°F24.2°C
Dew Point 72.9°F22.7°C 73.0°F22.8°C 67.1°F19.5°C 68.9°F20.5°C
Winds 2.1 mph ESE3.4 kmh ESE 5.8 mph ESE9.3 kmh ESE - 1.5 mph 2.4 kmh
Wind Gusts 3.1 mph5.0 kmh 5.8 mph9.3 kmh - -
Humidity 68% 87% 68% 80%
Pressure 29.96 in1014.6 mb 29.98 in1015.2 mb 29.93 in1013.5 mb -
Hour Temp Dew Point Humidity Winds Wind Gusts Pressure Precip Precip Rate Daily Precip Total
11:52 AM 84.6°F29.2°C 72.9°F22.7°C 68% 2.1 mph ESE3.4 kmh ESE 3.1 mph5.0 kmh 29.96 in1014.6 mb 0.00 in0.0 mm 0.00 in0.0 mm 0.00 in0.0 mm
11:47 AM 84.2°F29.0°C 73.0°F22.8°C 69% 2.9 mph ESE4.7 kmh ESE 3.1 mph5.0 kmh 29.96 in1014.6 mb 0.00 in0.0 mm 0.00 in0.0 mm 0.00 in0.0 mm
11:42 AM 83.7°F28.7°C 72.5°F22.5°C 69% 1.1 mph SE1.8 kmh SE 2.7 mph4.3 kmh 29.96 in1014.6 mb 0.00 in0.0 mm 0.00 in0.0 mm 0.00 in0.0 mm
11:37 AM 83.2°F28.4°C 72.8°F22.7°C 71% 1.6 mph E2.6 kmh E 3.6 mph5.8 kmh 29.96 in1014.6 mb 0.00 in0.0 mm 0.00 in0.0 mm 0.00 in0.0 mm
11:32 AM 82.6°F28.1°C 72.6°F22.6°C 72% 2.4 mph SE3.9 kmh SE 3.6 mph5.8 kmh 29.96 in1014.6 mb 0.00 in0.0 mm 0.00 in0.0 mm 0.00 in0.0 mm
11:27 AM 81.0°F27.2°C 71.9°F22.2°C 74% 2.2 mph ESE3.5 kmh ESE 2.2 mph3.5 kmh 29.96 in1014.6 mb 0.00 in0.0 mm 0.00 in0.0 mm 0.00 in0.0 mm
11:22 AM 80.6°F27.0°C 71.7°F22.1°C 74% 1.1 mph S1.8 kmh S 1.8 mph2.9 kmh 29.96 in1014.6 mb 0.00 in0.0 mm 0.00 in0.0 mm 0.00 in0.0 mm
11:17 AM 79.9°F26.6°C 71.3°F21.8°C 75% 1.8 mph WSW2.9 kmh WSW 1.8 mph2.9 kmh 29.97 in1014.9 mb 0.00 in0.0 mm 0.00 in0.0 mm 0.00 in0.0 mm
11:12 AM 79.6°F26.4°C 70.9°F21.6°C 75% 1.3 mph SW2.1 kmh SW 2.0 mph3.2 kmh 29.97 in1014.9 mb 0.00 in0.0 mm 0.00 in0.0 mm 0.00 in0.0 mm
11:07 AM 79.6°F26.4°C 70.9°F21.6°C 75% 1.7 mph SSW2.7 kmh SSW 2.5 mph4.0 kmh 29.97 in1014.9 mb 0.00 in0.0 mm 0.00 in0.0 mm 0.00 in0.0 mm
11:02 AM 79.9°F26.6°C 71.3°F21.8°C 75% 0.4 mph SE0.6 kmh SE 2.5 mph4.0 kmh 29.97 in1014.9 mb 0.00 in0.0 mm 0.00 in0.0 mm 0.00 in0.0 mm
10:57 AM 80.1°F26.7°C 71.5°F21.9°C 75% 2.5 mph NNE4.0 kmh NNE 2.5 mph4.0 kmh 29.97 in1014.9 mb 0.00 in0.0 mm 0.00 in0.0 mm 0.00 in0.0 mm
10:52 AM 80.3°F26.8°C 71.6°F22.0°C 75% 1.6 mph NNE2.6 kmh NNE 3.4 mph5.5 kmh 29.97 in1014.9 mb 0.00 in0.0 mm 0.00 in0.0 mm 0.00 in0.0 mm
10:47 AM 80.3°F26.8°C 72.0°F22.2°C 76% 2.4 mph N3.9 kmh N 4.0 mph6.4 kmh 29.97 in1014.9 mb 0.00 in0.0 mm 0.00 in0.0 mm 0.00 in0.0 mm
10:42 AM 79.9°F26.6°C 72.1°F22.3°C 77% 1.8 mph N2.9 kmh N 4.0 mph6.4 kmh 29.97 in1014.9 mb 0.00 in0.0 mm 0.00 in0.0 mm 0.00 in0.0 mm
10:37 AM 79.4°F26.3°C 71.9°F22.2°C 78% 3.8 mph NNE6.1 kmh NNE 4.0 mph6.4 kmh 29.97 in1014.9 mb 0.00 in0.0 mm 0.00 in0.0 mm 0.00 in0.0 mm
10:31 AM 79.0°F26.1°C 71.6°F22.0°C 78% 1.1 mph ENE1.8 kmh ENE 4.0 mph6.4 kmh 29.97 in1014.9 mb 0.00 in0.0 mm 0.00 in0.0 mm 0.00 in0.0 mm
10:26 AM 78.7°F25.9°C 72.0°F22.2°C 80% 3.4 mph 5.5 kmh 4.0 mph6.4 kmh 29.97 in1014.9 mb 0.00 in0.0 mm 0.00 in0.0 mm 0.00 in0.0 mm
10:22 AM 77.9°F25.5°C 71.6°F22.0°C 81% 1.1 mph 1.8 kmh 2.5 mph4.0 kmh 29.97 in1014.9 mb 0.00 in0.0 mm 0.00 in0.0 mm 0.00 in0.0 mm
10:17 AM 77.6°F25.3°C 71.3°F21.8°C 81% 1.1 mph E1.8 kmh E 2.5 mph4.0 kmh 29.97 in1014.9 mb 0.00 in0.0 mm 0.00 in0.0 mm 0.00 in0.0 mm
10:11 AM 77.4°F25.2°C 71.1°F21.7°C 81% 2.2 mph NNE3.5 kmh NNE 2.7 mph4.3 kmh 29.97 in1014.9 mb 0.00 in0.0 mm 0.00 in0.0 mm 0.00 in0.0 mm
10:06 AM 77.2°F25.1°C 70.9°F21.6°C 81% 1.4 mph N2.3 kmh N 2.7 mph4.3 kmh 29.97 in1014.9 mb 0.00 in0.0 mm 0.00 in0.0 mm 0.00 in0.0 mm
10:01 AM 76.9°F24.9°C 70.9°F21.6°C 82% 1.4 mph 2.3 kmh 2.7 mph4.3 kmh 29.97 in1014.9 mb 0.00 in0.0 mm 0.00 in0.0 mm 0.00 in0.0 mm
09:57 AM 76.7°F24.8°C 70.7°F21.5°C 82% 1.9 mph NE3.1 kmh NE 2.5 mph4.0 kmh 29.97 in1014.9 mb 0.00 in0.0 mm 0.00 in0.0 mm 0.00 in0.0 mm
09:51 AM 76.7°F24.8°C 70.7°F21.5°C 82% 1.5 mph NNE2.4 kmh NNE 4.3 mph6.9 kmh 29.98 in1015.2 mb 0.00 in0.0 mm 0.00 in0.0 mm 0.00 in0.0 mm
09:46 AM 76.5°F24.7°C 70.9°F21.6°C 83% 3.2 mph NE5.1 kmh NE 4.3 mph6.9 kmh 29.97 in1014.9 mb 0.00 in0.0 mm 0.00 in0.0 mm 0.00 in0.0 mm
09:41 AM 76.5°F24.7°C 70.9°F21.6°C 83% 2.4 mph NNE3.9 kmh NNE 4.3 mph6.9 kmh 29.97 in1014.9 mb 0.00 in0.0 mm 0.00 in0.0 mm 0.00 in0.0 mm
09:36 AM 76.3°F24.6°C 70.8°F21.6°C 83% 1.1 mph NE1.8 kmh NE 3.6 mph5.8 kmh 29.98 in1015.2 mb 0.00 in0.0 mm 0.00 in0.0 mm 0.00 in0.0 mm
09:31 AM 76.3°F24.6°C 70.8°F21.6°C 83% 2.8 mph NE4.5 kmh NE 3.6 mph5.8 kmh 29.97 in1014.9 mb 0.00 in0.0 mm 0.00 in0.0 mm 0.00 in0.0 mm
09:26 AM 76.1°F24.5°C 70.7°F21.5°C 83% 2.1 mph NE3.4 kmh NE 3.1 mph5.0 kmh 29.97 in1014.9 mb 0.00 in0.0 mm 0.00 in0.0 mm 0.00 in0.0 mm
09:21 AM 76.0°F24.4°C 70.8°F21.6°C 84% 2.1 mph N3.4 kmh N 3.1 mph5.0 kmh 29.97 in1014.9 mb 0.00 in0.0 mm 0.00 in0.0 mm 0.00 in0.0 mm
09:16 AM 76.0°F24.4°C 70.8°F21.6°C 84% 2.9 mph NNE4.7 kmh NNE 3.1 mph5.0 kmh 29.97 in1014.9 mb 0.00 in0.0 mm 0.00 in0.0 mm 0.00 in0.0 mm
09:11 AM 75.6°F24.2°C 70.8°F21.6°C 85% 1.1 mph 1.8 kmh 2.5 mph4.0 kmh 29.97 in1014.9 mb 0.00 in0.0 mm 0.00 in0.0 mm 0.00 in0.0 mm
09:06 AM 75.4°F24.1°C 70.7°F21.5°C 85% 1.6 mph NNE2.6 kmh NNE 2.5 mph4.0 kmh 29.97 in1014.9 mb 0.00 in0.0 mm 0.00 in0.0 mm 0.00 in0.0 mm
09:01 AM 75.2°F24.0°C 70.5°F21.4°C 85% 0.4 mph 0.6 kmh 2.5 mph4.0 kmh 29.96 in1014.6 mb 0.00 in0.0 mm 0.00 in0.0 mm 0.00 in0.0 mm
08:56 AM 74.9°F23.8°C 70.1°F21.2°C 85% 0.2 mph 0.3 kmh 2.5 mph4.0 kmh 29.96 in1014.6 mb 0.00 in0.0 mm 0.00 in0.0 mm 0.00 in0.0 mm
08:51 AM 74.7°F23.7°C 69.9°F21.1°C 85% 2.5 mph E4.0 kmh E 2.5 mph4.0 kmh 29.96 in1014.6 mb 0.00 in0.0 mm 0.00 in0.0 mm 0.00 in0.0 mm
08:46 AM 74.7°F23.7°C 69.9°F21.1°C 85% 0.9 mph 1.4 kmh 2.5 mph4.0 kmh 29.96 in1014.6 mb 0.00 in0.0 mm 0.00 in0.0 mm 0.00 in0.0 mm
08:41 AM 74.5°F23.6°C 70.1°F21.2°C 86% 2.5 mph 4.0 kmh 4.0 mph6.4 kmh 29.96 in1014.6 mb 0.00 in0.0 mm 0.00 in0.0 mm 0.00 in0.0 mm
08:36 AM 74.3°F23.5°C 69.9°F21.1°C 86% 3.9 mph NNE6.3 kmh NNE 4.0 mph6.4 kmh 29.96 in1014.6 mb 0.00 in0.0 mm 0.00 in0.0 mm 0.00 in0.0 mm
08:31 AM 74.3°F23.5°C 69.9°F21.1°C 86% 3.6 mph NNE5.8 kmh NNE 3.8 mph6.1 kmh 29.96 in1014.6 mb 0.00 in0.0 mm 0.00 in0.0 mm 0.00 in0.0 mm
08:26 AM 74.2°F23.4°C 70.1°F21.2°C 87% 2.5 mph NE4.0 kmh NE 2.7 mph4.3 kmh 29.96 in1014.6 mb 0.00 in0.0 mm 0.00 in0.0 mm 0.00 in0.0 mm
08:21 AM 73.8°F23.2°C 69.8°F21.0°C 87% 2.1 mph NE3.4 kmh NE 2.7 mph4.3 kmh 29.96 in1014.6 mb 0.00 in0.0 mm 0.00 in0.0 mm 0.00 in0.0 mm
08:16 AM 73.6°F23.1°C 69.6°F20.9°C 87% 2.2 mph NNE3.5 kmh NNE 2.2 mph3.5 kmh 29.96 in1014.6 mb 0.00 in0.0 mm 0.00 in0.0 mm 0.00 in0.0 mm
08:11 AM 73.1°F22.8°C 68.7°F20.4°C 86% 2.0 mph 3.2 kmh 2.0 mph3.2 kmh 29.96 in1014.6 mb 0.00 in0.0 mm 0.00 in0.0 mm 0.00 in0.0 mm
08:06 AM 72.7°F22.6°C 68.3°F20.2°C 86% 1.9 mph 3.1 kmh 2.0 mph3.2 kmh 29.95 in1014.2 mb 0.00 in0.0 mm 0.00 in0.0 mm 0.00 in0.0 mm
08:01 AM 72.5°F22.5°C 68.1°F20.1°C 86% 0.3 mph 0.5 kmh 2.0 mph3.2 kmh 29.95 in1014.2 mb 0.00 in0.0 mm 0.00 in0.0 mm 0.00 in0.0 mm
07:56 AM 72.4°F22.4°C 67.6°F19.8°C 85% 0.4 mph NNE0.6 kmh NNE 1.6 mph2.6 kmh 29.95 in1014.2 mb 0.00 in0.0 mm 0.00 in0.0 mm 0.00 in0.0 mm
07:51 AM 72.4°F22.4°C 67.6°F19.8°C 85% 0.8 mph NNE1.3 kmh NNE 1.6 mph2.6 kmh 29.95 in1014.2 mb 0.00 in0.0 mm 0.00 in0.0 mm 0.00 in0.0 mm
07:46 AM 72.4°F22.4°C 67.6°F19.8°C 85% 0.7 mph NNE1.1 kmh NNE 1.6 mph2.6 kmh 29.95 in1014.2 mb 0.00 in0.0 mm 0.00 in0.0 mm 0.00 in0.0 mm
07:41 AM 72.2°F22.3°C 67.4°F19.7°C 85% Calm Calm 0.4 mph0.6 kmh 29.95 in1014.2 mb 0.00 in0.0 mm 0.00 in0.0 mm 0.00 in0.0 mm
07:36 AM 72.2°F22.3°C 67.1°F19.5°C 84% Calm Calm 0.4 mph0.6 kmh 29.95 in1014.2 mb 0.00 in0.0 mm 0.00 in0.0 mm 0.00 in0.0 mm
07:31 AM 72.2°F22.3°C 67.1°F19.5°C 84% 0.4 mph NNE0.6 kmh NNE 0.4 mph0.6 kmh 29.94 in1013.9 mb 0.00 in0.0 mm 0.00 in0.0 mm 0.00 in0.0 mm
07:26 AM 72.4°F22.4°C 67.2°F19.6°C 84% Calm Calm -- 29.95 in1014.2 mb 0.00 in0.0 mm 0.00 in0.0 mm 0.00 in0.0 mm
07:21 AM 72.4°F22.4°C 67.2°F19.6°C 84% Calm Calm -- 29.94 in1013.9 mb 0.00 in0.0 mm 0.00 in0.0 mm 0.00 in0.0 mm
07:16 AM 72.4°F22.4°C 67.2°F19.6°C 84% Calm Calm -- 29.94 in1013.9 mb 0.00 in0.0 mm 0.00 in0.0 mm 0.00 in0.0 mm
07:11 AM 72.5°F22.5°C 67.4°F19.7°C 84% Calm Calm -- 29.94 in1013.9 mb 0.00 in0.0 mm 0.00 in0.0 mm 0.00 in0.0 mm
07:06 AM 72.5°F22.5°C 67.4°F19.7°C 84% Calm Calm -- 29.94 in1013.9 mb 0.00 in0.0 mm 0.00 in0.0 mm 0.00 in0.0 mm
07:01 AM 72.7°F22.6°C 67.6°F19.8°C 84% Calm Calm -- 29.94 in1013.9 mb 0.00 in0.0 mm 0.00 in0.0 mm 0.00 in0.0 mm
06:56 AM 72.7°F22.6°C 67.6°F19.8°C 84% Calm Calm -- 29.94 in1013.9 mb 0.00 in0.0 mm 0.00 in0.0 mm 0.00 in0.0 mm
06:51 AM 72.9°F22.7°C 67.4°F19.7°C 83% Calm Calm -- 29.94 in1013.9 mb 0.00 in0.0 mm 0.00 in0.0 mm 0.00 in0.0 mm
06:46 AM 73.1°F22.8°C 68.0°F20.0°C 84% Calm Calm -- 29.94 in1013.9 mb 0.00 in0.0 mm 0.00 in0.0 mm 0.00 in0.0 mm
06:41 AM 73.1°F22.8°C 68.0°F20.0°C 84% Calm Calm -- 29.94 in1013.9 mb 0.00 in0.0 mm 0.00 in0.0 mm 0.00 in0.0 mm
06:36 AM 73.4°F23.0°C 68.0°F20.0°C 83% Calm Calm -- 29.94 in1013.9 mb 0.00 in0.0 mm 0.00 in0.0 mm 0.00 in0.0 mm
06:31 AM 73.4°F23.0°C 68.0°F20.0°C 83% Calm Calm -- 29.94 in1013.9 mb 0.00 in0.0 mm 0.00 in0.0 mm 0.00 in0.0 mm
06:26 AM 73.6°F23.1°C 68.1°F20.1°C 83% Calm Calm 1.1 mph1.8 kmh 29.94 in1013.9 mb 0.00 in0.0 mm 0.00 in0.0 mm 0.00 in0.0 mm
06:21 AM 73.8°F23.2°C 68.3°F20.2°C 83% Calm Calm 1.1 mph1.8 kmh 29.93 in1013.5 mb 0.00 in0.0 mm 0.00 in0.0 mm 0.00 in0.0 mm
06:16 AM 74.0°F23.3°C 68.5°F20.3°C 83% 1.1 mph NNE1.8 kmh NNE 1.1 mph1.8 kmh 29.93 in1013.5 mb 0.00 in0.0 mm 0.00 in0.0 mm 0.00 in0.0 mm
06:11 AM 74.0°F23.3°C 68.5°F20.3°C 83% 0.4 mph NNE0.6 kmh NNE 1.1 mph1.8 kmh 29.93 in1013.5 mb 0.00 in0.0 mm 0.00 in0.0 mm 0.00 in0.0 mm
06:06 AM 74.0°F23.3°C 68.9°F20.5°C 84% 1.0 mph NE1.6 kmh NE 1.1 mph1.8 kmh 29.93 in1013.5 mb 0.00 in0.0 mm 0.00 in0.0 mm 0.00 in0.0 mm
06:01 AM 74.0°F23.3°C 68.5°F20.3°C 83% 0.6 mph NE1.0 kmh NE 1.1 mph1.8 kmh 29.93 in1013.5 mb 0.00 in0.0 mm 0.00 in0.0 mm 0.00 in0.0 mm
05:56 AM 74.0°F23.3°C 68.5°F20.3°C 83% 0.9 mph NE1.4 kmh NE 1.1 mph1.8 kmh 29.93 in1013.5 mb 0.00 in0.0 mm 0.00 in0.0 mm 0.00 in0.0 mm
05:51 AM 74.0°F23.3°C 68.5°F20.3°C 83% 0.7 mph NE1.1 kmh NE 1.1 mph1.8 kmh 29.93 in1013.5 mb 0.00 in0.0 mm 0.00 in0.0 mm 0.00 in0.0 mm
05:46 AM 74.0°F23.3°C 68.5°F20.3°C 83% 1.1 mph NE1.8 kmh NE 1.1 mph1.8 kmh 29.94 in1013.9 mb 0.00 in0.0 mm 0.00 in0.0 mm 0.00 in0.0 mm
05:41 AM 74.0°F23.3°C 68.5°F20.3°C 83% Calm Calm -- 29.94 in1013.9 mb 0.00 in0.0 mm 0.00 in0.0 mm 0.00 in0.0 mm
05:36 AM 74.0°F23.3°C 68.5°F20.3°C 83% Calm Calm 1.1 mph1.8 kmh 29.93 in1013.5 mb 0.00 in0.0 mm 0.00 in0.0 mm 0.00 in0.0 mm
05:31 AM 74.0°F23.3°C 68.5°F20.3°C 83% 0.4 mph NE0.6 kmh NE 1.1 mph1.8 kmh 29.93 in1013.5 mb 0.00 in0.0 mm 0.00 in0.0 mm 0.00 in0.0 mm
05:26 AM 74.2°F23.4°C 68.7°F20.4°C 83% Calm Calm 1.3 mph2.1 kmh 29.94 in1013.9 mb 0.00 in0.0 mm 0.00 in0.0 mm 0.00 in0.0 mm
05:21 AM 74.2°F23.4°C 68.7°F20.4°C 83% 1.1 mph NE1.8 kmh NE 1.3 mph2.1 kmh 29.94 in1013.9 mb 0.00 in0.0 mm 0.00 in0.0 mm 0.00 in0.0 mm
05:16 AM 74.2°F23.4°C 68.7°F20.4°C 83% 0.4 mph NE0.6 kmh NE 1.3 mph2.1 kmh 29.94 in1013.9 mb 0.00 in0.0 mm 0.00 in0.0 mm 0.00 in0.0 mm
05:11 AM 74.2°F23.4°C 68.4°F20.2°C 82% 0.4 mph NE0.6 kmh NE 1.3 mph2.1 kmh 29.94 in1013.9 mb 0.00 in0.0 mm 0.00 in0.0 mm 0.00 in0.0 mm
05:06 AM 74.2°F23.4°C 68.4°F20.2°C 82% 0.7 mph NNE1.1 kmh NNE 0.7 mph1.1 kmh 29.94 in1013.9 mb 0.00 in0.0 mm 0.00 in0.0 mm 0.00 in0.0 mm
05:01 AM 74.2°F23.4°C 68.4°F20.2°C 82% Calm Calm 0.7 mph1.1 kmh 29.94 in1013.9 mb 0.00 in0.0 mm 0.00 in0.0 mm 0.00 in0.0 mm
04:56 AM 74.2°F23.4°C 68.4°F20.2°C 82% 0.7 mph NNE1.1 kmh NNE 1.6 mph2.6 kmh 29.94 in1013.9 mb 0.00 in0.0 mm 0.00 in0.0 mm 0.00 in0.0 mm
04:51 AM 74.3°F23.5°C 68.6°F20.3°C 82% 0.6 mph NNE1.0 kmh NNE 1.6 mph2.6 kmh 29.94 in1013.9 mb 0.00 in0.0 mm 0.00 in0.0 mm 0.00 in0.0 mm
04:46 AM 74.3°F23.5°C 68.6°F20.3°C 82% 1.6 mph NE2.6 kmh NE 1.8 mph2.9 kmh 29.94 in1013.9 mb 0.00 in0.0 mm 0.00 in0.0 mm 0.00 in0.0 mm
04:41 AM 74.2°F23.4°C 68.4°F20.2°C 82% 1.1 mph NE1.8 kmh NE 1.8 mph2.9 kmh 29.94 in1013.9 mb 0.00 in0.0 mm 0.00 in0.0 mm 0.00 in0.0 mm
04:36 AM 74.2°F23.4°C 68.4°F20.2°C 82% 1.6 mph ENE2.6 kmh ENE 1.8 mph2.9 kmh 29.94 in1013.9 mb 0.00 in0.0 mm 0.00 in0.0 mm 0.00 in0.0 mm
04:31 AM 74.2°F23.4°C 68.4°F20.2°C 82% 1.1 mph ENE1.8 kmh ENE 1.1 mph1.8 kmh 29.94 in1013.9 mb 0.00 in0.0 mm 0.00 in0.0 mm 0.00 in0.0 mm
04:26 AM 74.2°F23.4°C 68.4°F20.2°C 82% 0.9 mph ENE1.4 kmh ENE 1.1 mph1.8 kmh 29.95 in1014.2 mb 0.00 in0.0 mm 0.00 in0.0 mm 0.00 in0.0 mm
04:21 AM 74.2°F23.4°C 68.1°F20.1°C 81% 1.1 mph NE1.8 kmh NE 1.1 mph1.8 kmh 29.95 in1014.2 mb 0.00 in0.0 mm 0.00 in0.0 mm 0.00 in0.0 mm
04:16 AM 74.2°F23.4°C 68.1°F20.1°C 81% 1.1 mph ENE1.8 kmh ENE 1.8 mph2.9 kmh 29.95 in1014.2 mb 0.00 in0.0 mm 0.00 in0.0 mm 0.00 in0.0 mm
04:11 AM 74.2°F23.4°C 68.1°F20.1°C 81% 0.4 mph ENE0.6 kmh ENE 2.2 mph3.5 kmh 29.95 in1014.2 mb 0.00 in0.0 mm 0.00 in0.0 mm 0.00 in0.0 mm
04:06 AM 74.2°F23.4°C 68.1°F20.1°C 81% 1.8 mph NE2.9 kmh NE 2.2 mph3.5 kmh 29.95 in1014.2 mb 0.00 in0.0 mm 0.00 in0.0 mm 0.00 in0.0 mm
04:01 AM 74.2°F23.4°C 68.1°F20.1°C 81% 2.1 mph ENE3.4 kmh ENE 2.2 mph3.5 kmh 29.95 in1014.2 mb 0.00 in0.0 mm 0.00 in0.0 mm 0.00 in0.0 mm
03:56 AM 74.3°F23.5°C 68.2°F20.1°C 81% 1.8 mph NE2.9 kmh NE 1.8 mph2.9 kmh 29.95 in1014.2 mb 0.00 in0.0 mm 0.00 in0.0 mm 0.00 in0.0 mm
03:51 AM 74.5°F23.6°C 68.4°F20.2°C 81% 1.4 mph NNE2.3 kmh NNE 2.5 mph4.0 kmh 29.95 in1014.2 mb 0.00 in0.0 mm 0.00 in0.0 mm 0.00 in0.0 mm
03:46 AM 74.5°F23.6°C 68.4°F20.2°C 81% 1.1 mph NNE1.8 kmh NNE 3.4 mph5.5 kmh 29.95 in1014.2 mb 0.00 in0.0 mm 0.00 in0.0 mm 0.00 in0.0 mm
03:41 AM 74.5°F23.6°C 68.4°F20.2°C 81% 2.6 mph ENE4.2 kmh ENE 3.6 mph5.8 kmh 29.95 in1014.2 mb 0.00 in0.0 mm 0.00 in0.0 mm 0.00 in0.0 mm
03:36 AM 74.3°F23.5°C 68.2°F20.1°C 81% 3.0 mph ENE4.8 kmh ENE 3.6 mph5.8 kmh 29.96 in1014.6 mb 0.00 in0.0 mm 0.00 in0.0 mm 0.00 in0.0 mm
03:31 AM 74.2°F23.4°C 68.1°F20.1°C 81% 3.6 mph NNE5.8 kmh NNE 3.6 mph5.8 kmh 29.96 in1014.6 mb 0.00 in0.0 mm 0.00 in0.0 mm 0.00 in0.0 mm
03:26 AM 74.2°F23.4°C 68.1°F20.1°C 81% 3.1 mph 5.0 kmh 3.1 mph5.0 kmh 29.96 in1014.6 mb 0.00 in0.0 mm 0.00 in0.0 mm 0.00 in0.0 mm
03:21 AM 74.2°F23.4°C 68.1°F20.1°C 81% 1.8 mph E2.9 kmh E 3.4 mph5.5 kmh 29.96 in1014.6 mb 0.00 in0.0 mm 0.00 in0.0 mm 0.00 in0.0 mm
03:16 AM 74.2°F23.4°C 68.1°F20.1°C 81% 2.2 mph NNE3.5 kmh NNE 3.4 mph5.5 kmh 29.96 in1014.6 mb 0.00 in0.0 mm 0.00 in0.0 mm 0.00 in0.0 mm
03:11 AM 74.2°F23.4°C 67.7°F19.8°C 80% 2.7 mph NE4.3 kmh NE 3.4 mph5.5 kmh 29.96 in1014.6 mb 0.00 in0.0 mm 0.00 in0.0 mm 0.00 in0.0 mm
03:06 AM 74.2°F23.4°C 67.7°F19.8°C 80% 0.7 mph 1.1 kmh 1.6 mph2.6 kmh 29.96 in1014.6 mb 0.00 in0.0 mm 0.00 in0.0 mm 0.00 in0.0 mm
03:01 AM 74.2°F23.4°C 67.7°F19.8°C 80% 1.1 mph NE1.8 kmh NE 2.2 mph3.5 kmh 29.96 in1014.6 mb 0.00 in0.0 mm 0.00 in0.0 mm 0.00 in0.0 mm
02:56 AM 74.3°F23.5°C 67.5°F19.7°C 79% 1.6 mph NE2.6 kmh NE 2.2 mph3.5 kmh 29.96 in1014.6 mb 0.00 in0.0 mm 0.00 in0.0 mm 0.00 in0.0 mm
02:51 AM 74.3°F23.5°C 67.5°F19.7°C 79% 1.4 mph NE2.3 kmh NE 2.2 mph3.5 kmh 29.96 in1014.6 mb 0.00 in0.0 mm 0.00 in0.0 mm 0.00 in0.0 mm
02:46 AM 74.5°F23.6°C 67.7°F19.8°C 79% 0.8 mph ENE1.3 kmh ENE 1.3 mph2.1 kmh 29.96 in1014.6 mb 0.00 in0.0 mm 0.00 in0.0 mm 0.00 in0.0 mm
02:41 AM 74.5°F23.6°C 67.7°F19.8°C 79% 0.4 mph E0.6 kmh E 1.1 mph1.8 kmh 29.96 in1014.6 mb 0.00 in0.0 mm 0.00 in0.0 mm 0.00 in0.0 mm
02:36 AM 74.5°F23.6°C 67.7°F19.8°C 79% 1.0 mph ENE1.6 kmh ENE 2.5 mph4.0 kmh 29.96 in1014.6 mb 0.00 in0.0 mm 0.00 in0.0 mm 0.00 in0.0 mm
02:31 AM 74.5°F23.6°C 67.2°F19.6°C 78% 0.8 mph NE1.3 kmh NE 2.5 mph4.0 kmh 29.96 in1014.6 mb 0.00 in0.0 mm 0.00 in0.0 mm 0.00 in0.0 mm
02:26 AM 74.7°F23.7°C 67.4°F19.7°C 78% 2.5 mph ENE4.0 kmh ENE 2.5 mph4.0 kmh 29.96 in1014.6 mb 0.00 in0.0 mm 0.00 in0.0 mm 0.00 in0.0 mm
02:21 AM 74.7°F23.7°C 67.4°F19.7°C 78% 1.8 mph NE2.9 kmh NE 2.9 mph4.7 kmh 29.96 in1014.6 mb 0.00 in0.0 mm 0.00 in0.0 mm 0.00 in0.0 mm
02:16 AM 74.9°F23.8°C 67.2°F19.6°C 77% 2.2 mph NE3.5 kmh NE 2.9 mph4.7 kmh 29.96 in1014.6 mb 0.00 in0.0 mm 0.00 in0.0 mm 0.00 in0.0 mm
02:11 AM 75.1°F23.9°C 67.4°F19.7°C 77% 1.8 mph NE2.9 kmh NE 2.5 mph4.0 kmh 29.96 in1014.6 mb 0.00 in0.0 mm 0.00 in0.0 mm 0.00 in0.0 mm
02:06 AM 75.2°F24.0°C 67.6°F19.8°C 77% 1.9 mph NNE3.1 kmh NNE 2.5 mph4.0 kmh 29.96 in1014.6 mb 0.00 in0.0 mm 0.00 in0.0 mm 0.00 in0.0 mm
02:01 AM 75.2°F24.0°C 67.1°F19.5°C 76% 2.2 mph NNE3.5 kmh NNE 2.2 mph3.5 kmh 29.96 in1014.6 mb 0.00 in0.0 mm 0.00 in0.0 mm 0.00 in0.0 mm
01:56 AM 75.4°F24.1°C 67.3°F19.6°C 76% 1.2 mph NE1.9 kmh NE 1.8 mph2.9 kmh 29.97 in1014.9 mb 0.00 in0.0 mm 0.00 in0.0 mm 0.00 in0.0 mm
01:51 AM 75.6°F24.2°C 67.5°F19.7°C 76% 0.9 mph NE1.4 kmh NE 1.8 mph2.9 kmh 29.97 in1014.9 mb 0.00 in0.0 mm 0.00 in0.0 mm 0.00 in0.0 mm
01:46 AM 75.8°F24.3°C 67.7°F19.8°C 76% 1.8 mph 2.9 kmh 2.0 mph3.2 kmh 29.97 in1014.9 mb 0.00 in0.0 mm 0.00 in0.0 mm 0.00 in0.0 mm
01:41 AM 75.8°F24.3°C 67.7°F19.8°C 76% 1.1 mph ENE1.8 kmh ENE 4.0 mph6.4 kmh 29.97 in1014.9 mb 0.00 in0.0 mm 0.00 in0.0 mm 0.00 in0.0 mm
01:36 AM 76.0°F24.4°C 67.5°F19.7°C 75% 1.3 mph ENE2.1 kmh ENE 4.0 mph6.4 kmh 29.97 in1014.9 mb 0.00 in0.0 mm 0.00 in0.0 mm 0.00 in0.0 mm
01:31 AM 76.0°F24.4°C 67.5°F19.7°C 75% 4.0 mph ENE6.4 kmh ENE 4.0 mph6.4 kmh 29.97 in1014.9 mb 0.00 in0.0 mm 0.00 in0.0 mm 0.00 in0.0 mm
01:26 AM 76.0°F24.4°C 67.5°F19.7°C 75% 1.7 mph NE2.7 kmh NE 2.7 mph4.3 kmh 29.97 in1014.9 mb 0.00 in0.0 mm 0.00 in0.0 mm 0.00 in0.0 mm
01:21 AM 76.1°F24.5°C 67.7°F19.8°C 75% 2.2 mph NE3.5 kmh NE 2.7 mph4.3 kmh 29.97 in1014.9 mb 0.00 in0.0 mm 0.00 in0.0 mm 0.00 in0.0 mm
01:16 AM 76.3°F24.6°C 67.8°F19.9°C 75% 1.1 mph NNE1.8 kmh NNE 3.4 mph5.5 kmh 29.97 in1014.9 mb 0.00 in0.0 mm 0.00 in0.0 mm 0.00 in0.0 mm
01:11 AM 76.3°F24.6°C 67.8°F19.9°C 75% 3.4 mph SE5.5 kmh SE 3.4 mph5.5 kmh 29.97 in1014.9 mb 0.00 in0.0 mm 0.00 in0.0 mm 0.00 in0.0 mm
01:06 AM 76.3°F24.6°C 67.4°F19.7°C 74% 1.8 mph NNE2.9 kmh NNE 1.8 mph2.9 kmh 29.97 in1014.9 mb 0.00 in0.0 mm 0.00 in0.0 mm 0.00 in0.0 mm
01:01 AM 76.5°F24.7°C 67.6°F19.8°C 74% 0.4 mph ENE0.6 kmh ENE 2.9 mph4.7 kmh 29.97 in1014.9 mb 0.00 in0.0 mm 0.00 in0.0 mm 0.00 in0.0 mm
12:56 AM 76.7°F24.8°C 67.8°F19.9°C 74% 1.9 mph E3.1 kmh E 2.9 mph4.7 kmh 29.97 in1014.9 mb 0.00 in0.0 mm 0.00 in0.0 mm 0.00 in0.0 mm
12:51 AM 76.7°F24.8°C 67.8°F19.9°C 74% 2.3 mph NNE3.7 kmh NNE 5.8 mph9.3 kmh 29.97 in1014.9 mb 0.00 in0.0 mm 0.00 in0.0 mm 0.00 in0.0 mm
12:46 AM 76.7°F24.8°C 67.8°F19.9°C 74% 2.9 mph NNE4.7 kmh NNE 5.8 mph9.3 kmh 29.97 in1014.9 mb 0.00 in0.0 mm 0.00 in0.0 mm 0.00 in0.0 mm
12:41 AM 76.9°F24.9°C 68.0°F20.0°C 74% 5.8 mph ESE9.3 kmh ESE 5.8 mph9.3 kmh 29.97 in1014.9 mb 0.00 in0.0 mm 0.00 in0.0 mm 0.00 in0.0 mm
12:36 AM 76.9°F24.9°C 67.6°F19.8°C 73% 5.4 mph E8.7 kmh E 5.4 mph8.7 kmh 29.98 in1015.2 mb 0.00 in0.0 mm 0.00 in0.0 mm 0.00 in0.0 mm
12:31 AM 77.0°F25.0°C 67.8°F19.9°C 73% 3.2 mph ENE5.1 kmh ENE 5.4 mph8.7 kmh 29.97 in1014.9 mb 0.00 in0.0 mm 0.00 in0.0 mm 0.00 in0.0 mm
12:26 AM 77.0°F25.0°C 67.8°F19.9°C 73% 1.6 mph ENE2.6 kmh ENE 3.8 mph6.1 kmh 29.97 in1014.9 mb 0.00 in0.0 mm 0.00 in0.0 mm 0.00 in0.0 mm
12:21 AM 77.2°F25.1°C 67.5°F19.7°C 72% 1.4 mph ENE2.3 kmh ENE 3.8 mph6.1 kmh 29.97 in1014.9 mb 0.00 in0.0 mm 0.00 in0.0 mm 0.00 in0.0 mm
12:16 AM 77.4°F25.2°C 67.7°F19.8°C 72% 2.6 mph E4.2 kmh E 3.8 mph6.1 kmh 29.96 in1014.6 mb 0.00 in0.0 mm 0.00 in0.0 mm 0.00 in0.0 mm
12:11 AM 77.4°F25.2°C 67.7°F19.8°C 72% 1.4 mph NE2.3 kmh NE 4.0 mph6.4 kmh 29.96 in1014.6 mb 0.00 in0.0 mm 0.00 in0.0 mm 0.00 in0.0 mm
12:06 AM 77.6°F25.3°C 67.9°F19.9°C 72% 3.1 mph ENE5.0 kmh ENE 4.0 mph6.4 kmh 29.96 in1014.6 mb 0.00 in0.0 mm 0.00 in0.0 mm 0.00 in0.0 mm
12:01 AM 77.8°F25.4°C 67.6°F19.8°C 71% 2.7 mph ENE4.3 kmh ENE 5.4 mph8.7 kmh 29.97 in1014.9 mb 0.00 in0.0 mm 0.00 in0.0 mm 0.00 in0.0 mm